Time;durP1;ratioP1;P1;durP2;ratioP2;P2;SDS_P1;SDS_P2;PMS_P1;PMS_P2;Temp;Humidity;BMP_temperature;BMP_pressure;BME280_temperature;BME280_humidity;BME280_pressure;Samples;Min_cycle;Max_cycle;Signal;HPM_P1;HPM_P2
2024/03/09 00:01:16;;;;;;;;;;;1.30;99.90;;;;;;5107895;27;20047;-80
2024/03/09 00:03:42;;;;;;;0.60;0.60;;;1.20;99.90;;;;;;5121955;27;19926;-81
2024/03/09 00:06:08;;;;;;;0.60;0.60;;;1.20;99.90;;;;;;5078694;27;20027;-82
2024/03/09 00:08:34;;;;;;;0.70;0.70;;;1.20;99.90;;;;;;5083262;27;20494;-82
2024/03/09 00:11:01;;;;;;;0.68;0.68;;;1.20;99.90;;;;;;5102946;27;20055;-80
2024/03/09 00:13:27;;;;;;;0.70;0.70;;;1.10;99.90;;;;;;5083437;28;20446;-80
2024/03/09 00:15:54;;;;;;;0.75;0.75;;;1.10;99.90;;;;;;5113508;27;20520;-81
2024/03/09 00:18:20;;;;;;;0.50;0.50;;;1.10;99.90;;;;;;5126601;27;20063;-81
2024/03/09 00:20:47;;;;;;;0.73;0.73;;;1.10;99.90;;;;;;5097377;28;20573;-81
2024/03/09 00:23:13;;;;;;;1.13;1.13;;;1.10;99.90;;;;;;5116526;27;20035;-81
2024/03/09 00:25:40;;;;;;;;;;;1.10;99.90;;;;;;5084147;27;20078;-82
2024/03/09 00:28:06;;;;;;;0.73;0.73;;;1.00;99.90;;;;;;5116458;27;20310;-80
2024/03/09 00:30:32;;;;;;;0.65;0.65;;;1.00;99.90;;;;;;5099697;27;20046;-81
2024/03/09 00:32:59;;;;;;;;;;;1.00;99.90;;;;;;5118755;27;20035;-82
2024/03/09 00:35:27;;;;;;;0.67;0.67;;;0.90;99.90;;;;;;5094143;27;19946;-82
2024/03/09 00:37:53;;;;;;;0.80;0.80;;;0.90;99.90;;;;;;5103349;27;21303;-82
2024/03/09 00:40:19;;;;;;;;;;;0.90;99.90;;;;;;5117807;27;20047;-80
2024/03/09 00:42:48;;;;;;;0.70;0.70;;;0.90;99.90;;;;;;5118180;27;19972;-81
2024/03/09 00:45:15;;;;;;;0.70;0.70;;;1.00;99.90;;;;;;5099226;28;20522;-81
2024/03/09 00:47:46;;;;;;;0.70;0.70;;;0.90;99.90;;;;;;5108422;27;20061;-80
2024/03/09 00:50:17;;;;;;;0.70;0.70;;;0.90;99.90;;;;;;5098106;28;20525;-82
2024/03/09 00:52:45;;;;;;;0.60;0.60;;;0.90;99.90;;;;;;5093391;27;20070;-84
2024/03/09 00:55:14;;;;;;;0.75;0.75;;;0.90;99.90;;;;;;5091618;27;20073;-87
2024/03/09 00:57:50;;;;;;;4.57;2.08;;;0.90;99.90;;;;;;5121768;27;20430;-87
2024/03/09 01:00:18;;;;;;;1.42;1.33;;;0.90;99.90;;;;;;5134489;27;20068;-86
2024/03/09 01:02:46;;;;;;;1.20;1.20;;;0.90;99.90;;;;;;5140409;27;20048;-87
2024/03/09 01:05:12;;;;;;;0.80;0.80;;;0.90;99.90;;;;;;5134566;27;20043;-87
2024/03/09 01:07:39;;;;;;;0.60;0.60;;;0.80;99.90;;;;;;5108997;27;20043;-86
2024/03/09 01:10:06;;;;;;;0.98;0.98;;;0.80;99.90;;;;;;5136806;27;20048;-87
2024/03/09 01:12:35;;;;;;;0.70;0.70;;;0.70;99.90;;;;;;5116939;27;20035;-88
2024/03/09 01:15:13;;;;;;;2.03;1.92;;;0.70;99.90;;;;;;5093319;27;20069;-84
2024/03/09 01:17:39;;;;;;;1.88;1.77;;;0.80;99.90;;;;;;5095213;28;20253;-84
2024/03/09 01:20:06;;;;;;;0.75;0.75;;;0.70;99.90;;;;;;5129192;27;20048;-83
2024/03/09 01:22:36;;;;;;;0.65;0.65;;;0.70;99.90;;;;;;5107746;28;20051;-81
2024/03/09 01:25:02;;;;;;;0.70;0.70;;;0.70;99.90;;;;;;5106671;27;20038;-82
2024/03/09 01:27:28;;;;;;;0.75;0.75;;;0.60;99.90;;;;;;5128995;27;20036;-82
2024/03/09 01:29:59;;;;;;;0.77;0.77;;;0.70;99.90;;;;;;5094768;27;20035;-82
2024/03/09 01:32:25;;;;;;;0.90;0.90;;;0.60;99.90;;;;;;5108577;27;20039;-81
2024/03/09 01:34:51;;;;;;;;;;;0.60;99.90;;;;;;5123458;27;20519;-81
2024/03/09 01:37:19;;;;;;;1.10;1.10;;;0.60;99.90;;;;;;5110545;27;19915;-81
2024/03/09 01:39:49;;;;;;;0.80;0.80;;;0.50;99.90;;;;;;5118110;27;20051;-82
2024/03/09 01:42:21;;;;;;;0.80;0.80;;;0.60;99.90;;;;;;5105367;27;20046;-82
2024/03/09 01:44:51;;;;;;;0.90;0.90;;;0.50;99.90;;;;;;5095445;27;20099;-83
2024/03/09 01:47:25;;;;;;;1.25;1.20;;;0.70;99.90;;;;;;5110311;27;20154;-83
2024/03/09 01:49:56;;;;;;;1.55;1.42;;;0.50;99.90;;;;;;5115887;27;20047;-83
2024/03/09 01:52:25;;;;;;;0.80;0.80;;;0.50;99.90;;;;;;5114354;27;20114;-84
2024/03/09 01:54:54;;;;;;;0.80;0.80;;;1.80;99.90;;;;;;5135824;27;20489;-85
2024/03/09 01:57:20;;;;;;;0.80;0.80;;;0.50;99.90;;;;;;5119874;27;20134;-83
2024/03/09 01:59:52;;;;;;;;;;;0.50;99.90;;;;;;5110257;27;20040;-81
2024/03/09 02:02:20;;;;;;;1.17;1.17;;;0.60;99.90;;;;;;5098768;27;19977;-83
2024/03/09 02:04:46;;;;;;;0.80;0.80;;;0.60;99.90;;;;;;5090342;27;20055;-83
2024/03/09 02:07:16;;;;;;;1.00;1.00;;;0.60;99.90;;;;;;5104977;27;20410;-81
2024/03/09 02:09:43;;;;;;;0.60;0.60;;;0.60;99.90;;;;;;5109557;27;20063;-81
2024/03/09 02:12:13;;;;;;;0.73;0.73;;;0.60;99.90;;;;;;5086981;27;20046;-82
2024/03/09 02:14:38;;;;;;;0.70;0.70;;;0.60;99.90;;;;;;5130946;27;20045;-83
2024/03/09 02:17:08;;;;;;;1.15;1.15;;;0.60;99.90;;;;;;5097805;27;20406;-82
2024/03/09 02:19:41;;;;;;;0.75;0.75;;;0.70;99.90;;;;;;5099257;27;20047;-83
2024/03/09 02:22:10;;;;;;;0.70;0.70;;;0.60;99.90;;;;;;5127536;27;20047;-82
2024/03/09 02:24:40;;;;;;;0.82;0.82;;;0.60;99.90;;;;;;5108802;27;20517;-82
2024/03/09 02:27:07;;;;;;;5.72;1.50;;;0.60;99.90;;;;;;5114838;27;20042;-81
2024/03/09 02:29:33;;;;;;;0.70;0.70;;;0.60;99.90;;;;;;5135086;27;20069;-82
2024/03/09 02:31:59;;;;;;;0.80;0.80;;;0.60;99.90;;;;;;5109825;27;20096;-83
2024/03/09 02:34:25;;;;;;;0.80;0.80;;;0.70;99.90;;;;;;5106614;27;20043;-82
2024/03/09 02:36:52;;;;;;;3.78;3.42;;;0.70;99.90;;;;;;5106455;27;20119;-83
2024/03/09 02:39:17;;;;;;;0.82;0.82;;;0.70;99.90;;;;;;5126026;27;20046;-82
2024/03/09 02:41:43;;;;;;;0.70;0.70;;;0.60;99.90;;;;;;5092980;27;20042;-80
2024/03/09 02:44:13;;;;;;;0.77;0.77;;;0.60;99.90;;;;;;5131799;27;20058;-80
2024/03/09 02:46:39;;;;;;;0.70;0.70;;;0.60;99.90;;;;;;5105545;27;20410;-80
2024/03/09 02:49:05;;;;;;;;;;;0.60;99.90;;;;;;5092728;27;20074;-82
2024/03/09 02:51:32;;;;;;;0.70;0.70;;;0.50;99.90;;;;;;5091751;27;20358;-81
2024/03/09 02:53:58;;;;;;;0.70;0.70;;;0.50;99.90;;;;;;5101726;27;20035;-82
2024/03/09 02:56:30;;;;;;;0.70;0.70;;;0.60;99.90;;;;;;5132273;27;20042;-83
2024/03/09 02:58:58;;;;;;;0.80;0.80;;;0.50;99.90;;;;;;5106020;27;20046;-83
2024/03/09 03:01:26;;;;;;;0.80;0.80;;;0.60;99.90;;;;;;5111790;27;20050;-82
2024/03/09 03:06:21;;;;;;;1.88;1.60;;;0.60;99.90;;;;;;5113006;27;20494;-83
2024/03/09 03:08:53;;;;;;;;;;;0.50;99.90;;;;;;5114283;27;20061;-83
2024/03/09 03:11:21;;;;;;;0.80;0.80;;;0.50;99.90;;;;;;5122666;27;19972;-81
2024/03/09 03:13:48;;;;;;;0.80;0.80;;;0.50;99.90;;;;;;5109191;27;20036;-82
2024/03/09 03:16:26;;;;;;;0.70;0.70;;;0.50;99.90;;;;;;5111236;27;20039;-83
2024/03/09 03:18:52;;;;;;;0.80;0.80;;;0.50;99.90;;;;;;5108434;27;20040;-82
2024/03/09 03:21:18;;;;;;;0.65;0.65;;;0.50;99.90;;;;;;5105275;27;20536;-82
2024/03/09 03:23:47;;;;;;;0.98;0.98;;;0.50;99.90;;;;;;5107031;27;20039;-81
2024/03/09 03:26:14;;;;;;;0.90;0.90;;;0.50;99.90;;;;;;5094869;27;20084;-84
2024/03/09 03:28:42;;;;;;;0.80;0.80;;;0.50;99.90;;;;;;5105748;28;20051;-83
2024/03/09 03:31:10;;;;;;;1.17;1.08;;;0.40;99.90;;;;;;5108259;27;20055;-82
2024/03/09 03:33:41;;;;;;;0.68;0.68;;;0.40;99.90;;;;;;5116486;27;20036;-83
2024/03/09 03:36:13;;;;;;;0.70;0.70;;;0.30;99.90;;;;;;5102764;27;20088;-81
2024/03/09 03:38:41;;;;;;;0.68;0.68;;;0.30;99.90;;;;;;5106314;27;20299;-82
2024/03/09 03:41:09;;;;;;;0.80;0.80;;;0.20;99.90;;;;;;5104846;27;20613;-84
2024/03/09 03:43:36;;;;;;;0.85;0.85;;;0.30;99.90;;;;;;5110051;27;20071;-83
2024/03/09 03:46:02;;;;;;;0.57;0.57;;;0.20;99.90;;;;;;5103965;27;20043;-82
2024/03/09 03:48:29;;;;;;;6.53;4.53;;;0.20;99.90;;;;;;5081787;27;20136;-82
2024/03/09 03:50:55;;;;;;;0.70;0.70;;;0.30;99.90;;;;;;5108074;27;20051;-83
2024/03/09 03:53:21;;;;;;;0.70;0.70;;;0.10;99.90;;;;;;5103786;27;20040;-83
2024/03/09 03:55:47;;;;;;;0.80;0.80;;;0.10;99.90;;;;;;5111380;27;20091;-84
2024/03/09 03:58:15;;;;;;;1.02;1.02;;;0.10;99.90;;;;;;5104637;27;20063;-81
2024/03/09 04:00:41;;;;;;;0.80;0.80;;;0.10;99.90;;;;;;5090221;28;20055;-83
2024/03/09 04:03:07;;;;;;;0.70;0.70;;;0.10;99.90;;;;;;5106763;27;20096;-83
2024/03/09 04:05:33;;;;;;;0.80;0.80;;;0.10;99.90;;;;;;5082296;28;20049;-83
2024/03/09 04:07:59;;;;;;;0.80;0.80;;;0.00;99.90;;;;;;5108268;27;20044;-83
2024/03/09 04:10:25;;;;;;;;;;;0.00;99.90;;;;;;5122601;27;20432;-83
2024/03/09 04:12:53;;;;;;;0.75;0.75;;;0.00;99.90;;;;;;5110207;27;19957;-82
2024/03/09 04:15:19;;;;;;;0.85;0.85;;;0.00;99.90;;;;;;5109086;27;20039;-82
2024/03/09 04:17:45;;;;;;;0.70;0.70;;;0.00;99.90;;;;;;5128601;27;20036;-83
2024/03/09 04:20:15;;;;;;;0.80;0.80;;;-0.10;99.90;;;;;;5107829;27;20032;-82
2024/03/09 04:22:45;;;;;;;0.70;0.70;;;-0.10;99.90;;;;;;5087202;27;20120;-82
2024/03/09 04:25:11;;;;;;;1.90;1.80;;;0.00;99.90;;;;;;5106441;27;20402;-83
2024/03/09 04:27:38;;;;;;;0.65;0.65;;;-0.10;99.90;;;;;;5082349;27;20486;-83
2024/03/09 04:30:05;;;;;;;0.73;0.73;;;-0.10;99.90;;;;;;5117202;27;20040;-83
2024/03/09 04:32:31;;;;;;;0.70;0.70;;;-0.20;99.90;;;;;;5103649;27;20513;-85
2024/03/09 04:34:57;;;;;;;0.70;0.70;;;0.00;99.90;;;;;;5094459;27;20073;-82
2024/03/09 04:37:27;;;;;;;0.75;0.75;;;-0.20;99.90;;;;;;5099332;27;20039;-83
2024/03/09 04:39:55;;;;;;;0.88;0.88;;;-0.10;99.90;;;;;;5082277;28;21366;-82
2024/03/09 04:42:25;;;;;;;0.90;0.90;;;-0.30;99.90;;;;;;5126757;27;20042;-85
2024/03/09 04:44:51;;;;;;;0.80;0.80;;;-0.10;99.90;;;;;;5111039;27;20624;-83
2024/03/09 04:47:20;;;;;;;0.80;0.80;;;-0.20;99.90;;;;;;5106318;27;20509;-84
2024/03/09 04:49:49;;;;;;;0.80;0.80;;;-0.30;99.90;;;;;;5111284;27;20058;-85
2024/03/09 04:52:15;;;;;;;0.80;0.80;;;-0.20;99.90;;;;;;5103605;28;20038;-83
2024/03/09 04:54:44;;;;;;;0.70;0.70;;;-0.20;99.90;;;;;;5076497;27;20035;-84
2024/03/09 04:57:24;;;;;;;1.90;1.90;;;-0.30;99.90;;;;;;5092855;28;20071;-81
2024/03/09 04:59:50;;;;;;;1.13;1.13;;;-0.40;99.90;;;;;;5107905;27;20558;-82
2024/03/09 05:02:17;;;;;;;0.60;0.60;;;-0.40;99.90;;;;;;5109749;28;20039;-84
2024/03/09 05:04:43;;;;;;;0.80;0.80;;;-0.40;99.90;;;;;;5077918;27;20385;-83
2024/03/09 05:07:09;;;;;;;1.27;1.17;;;-0.40;99.90;;;;;;5132315;27;20076;-83
2024/03/09 05:09:37;;;;;;;0.75;0.75;;;-0.30;99.90;;;;;;5129768;27;20134;-84
2024/03/09 05:12:06;;;;;;;0.80;0.80;;;-0.40;99.90;;;;;;5111546;27;20050;-84
2024/03/09 05:14:32;;;;;;;0.80;0.80;;;-0.40;99.90;;;;;;5130036;27;20039;-85
2024/03/09 05:16:58;;;;;;;1.42;1.42;;;-0.40;99.90;;;;;;5103966;27;20107;-84
2024/03/09 05:19:24;;;;;;;1.55;1.45;;;-0.30;99.90;;;;;;5115952;27;20038;-84
2024/03/09 05:21:51;;;;;;;0.80;0.80;;;-0.40;99.90;;;;;;5116382;27;20122;-84
2024/03/09 05:24:20;;;;;;;2.40;1.15;;;-0.40;99.90;;;;;;5121858;27;20050;-82
2024/03/09 05:26:45;;;;;;;1.05;1.05;;;-0.40;99.90;;;;;;5111318;27;20039;-82
2024/03/09 05:29:11;;;;;;;0.90;0.90;;;-0.40;99.90;;;;;;5096742;27;20039;-85
2024/03/09 05:31:37;;;;;;;0.80;0.80;;;-0.50;99.90;;;;;;5091220;27;20051;-83
2024/03/09 05:34:06;;;;;;;1.50;1.33;;;-0.40;99.90;;;;;;5106981;27;20505;-85
2024/03/09 05:36:32;;;;;;;0.77;0.77;;;-0.30;99.90;;;;;;5105903;27;20059;-84
2024/03/09 05:38:58;;;;;;;0.75;0.75;;;0.00;99.90;;;;;;5141357;27;20109;-84
2024/03/09 05:41:24;;;;;;;0.80;0.80;;;-0.50;99.90;;;;;;5116470;27;20036;-83
2024/03/09 05:43:50;;;;;;;1.80;1.70;;;-0.50;99.90;;;;;;5122155;27;20038;-82
2024/03/09 05:46:17;;;;;;;0.95;0.95;;;0.30;99.90;;;;;;5088758;27;20050;-81
2024/03/09 05:48:46;;;;;;;0.90;0.90;;;-0.30;99.90;;;;;;5077403;27;20031;-81
2024/03/09 05:51:14;;;;;;;0.68;0.68;;;-0.60;99.90;;;;;;5069886;27;20115;-83
2024/03/09 05:53:41;;;;;;;0.80;0.80;;;-0.40;99.90;;;;;;5096809;27;20039;-81
2024/03/09 05:56:07;;;;;;;0.80;0.80;;;-0.70;99.90;;;;;;5086004;27;20031;-82
2024/03/09 05:58:33;;;;;;;0.90;0.90;;;-0.70;99.90;;;;;;5112388;27;20045;-84
2024/03/09 06:01:00;;;;;;;0.73;0.73;;;0.20;99.90;;;;;;5100444;27;20111;-83
2024/03/09 06:03:26;;;;;;;;;;;-0.60;99.90;;;;;;5101165;27;20028;-82
2024/03/09 06:05:55;;;;;;;0.80;0.80;;;-0.30;99.90;;;;;;5096044;27;19936;-81
2024/03/09 06:08:22;;;;;;;0.60;0.60;;;-1.50;99.90;;;;;;5089784;28;20043;-83
2024/03/09 06:10:50;;;;;;;0.75;0.75;;;-0.70;99.90;;;;;;5091737;28;20067;-85
2024/03/09 06:13:35;;;;;;;0.80;0.80;;;-0.60;99.90;;;;;;5118300;27;20076;-86
2024/03/09 06:16:01;;;;;;;0.73;0.73;;;-0.50;99.90;;;;;;5121924;27;20506;-86
2024/03/09 06:18:27;;;;;;;0.80;0.80;;;-0.50;99.90;;;;;;5105301;28;20036;-86
2024/03/09 06:20:55;;;;;;;0.80;0.80;;;-0.60;99.90;;;;;;5078932;27;20047;-84
2024/03/09 06:23:22;;;;;;;0.80;0.80;;;-0.60;99.90;;;;;;5069554;28;20054;-84
2024/03/09 06:25:48;;;;;;;1.05;1.05;;;-0.30;99.90;;;;;;5084838;28;20043;-84
2024/03/09 06:28:15;;;;;;;0.80;0.80;;;-0.30;99.90;;;;;;5117494;28;20050;-84
2024/03/09 06:30:45;;;;;;;1.20;1.20;;;-0.50;99.90;;;;;;5121817;27;20040;-86
2024/03/09 06:33:11;;;;;;;0.80;0.80;;;-0.50;99.90;;;;;;5128067;27;20039;-87
2024/03/09 06:35:37;;;;;;;0.88;0.88;;;-0.50;99.90;;;;;;5123849;27;20055;-86
2024/03/09 06:38:05;;;;;;;0.80;0.80;;;-0.40;99.90;;;;;;5070371;28;20064;-87
2024/03/09 06:40:34;;;;;;;0.60;0.60;;;-0.40;99.90;;;;;;5086859;27;20047;-85
2024/03/09 06:43:08;;;;;;;0.75;0.75;;;0.00;99.90;;;;;;5092807;28;20142;-86
2024/03/09 06:45:36;;;;;;;0.80;0.80;;;-0.40;99.90;;;;;;5111131;27;20052;-86
2024/03/09 06:48:23;;;;;;;0.80;0.80;;;-0.40;99.90;;;;;;5099503;28;20490;-87
2024/03/09 06:50:49;;;;;;;0.80;0.80;;;-0.30;99.90;;;;;;5107267;28;20044;-88
2024/03/09 06:53:17;;;;;;;0.82;0.82;;;-0.60;99.90;;;;;;5094632;28;20059;-89
2024/03/09 06:55:43;;;;;;;0.70;0.70;;;0.00;99.90;;;;;;5120727;27;20058;-88
2024/03/09 06:58:09;;;;;;;0.85;0.85;;;-0.10;99.90;;;;;;5087668;28;20451;-86
2024/03/09 07:00:35;;;;;;;1.05;1.05;;;-0.10;99.90;;;;;;5097923;28;20123;-88
2024/03/09 07:03:07;;;;;;;1.83;1.65;;;0.10;99.90;;;;;;5102581;28;20043;-87
2024/03/09 07:05:36;;;;;;;0.90;0.90;;;0.10;99.90;;;;;;5101707;27;20043;-87
2024/03/09 07:08:09;;;;;;;0.65;0.65;;;0.20;99.90;;;;;;5147472;27;20059;-88
2024/03/09 07:10:39;;;;;;;1.67;1.58;;;0.20;99.90;;;;;;5130479;27;20064;-88
2024/03/09 07:13:09;;;;;;;0.65;0.65;;;0.30;99.90;;;;;;5089409;28;20116;-88
2024/03/09 07:15:38;;;;;;;0.70;0.70;;;0.40;99.90;;;;;;5095070;28;20073;-84
2024/03/09 07:18:15;;;;;;;0.90;0.90;;;0.40;99.90;;;;;;5076931;28;20264;-87
2024/03/09 07:20:44;;;;;;;0.70;0.70;;;0.50;99.90;;;;;;5116424;28;20068;-84
2024/03/09 07:23:10;;;;;;;0.80;0.80;;;0.60;99.90;;;;;;5070905;28;20051;-85
2024/03/09 07:25:40;;;;;;;0.68;0.68;;;0.70;99.90;;;;;;5096377;28;20062;-85
2024/03/09 07:28:08;;;;;;;1.00;1.00;;;1.00;99.90;;;;;;5097926;28;20047;-87
2024/03/09 07:30:36;;;;;;;0.90;0.90;;;0.90;99.90;;;;;;5086390;28;20041;-86
2024/03/09 07:33:03;;;;;;;0.70;0.70;;;0.90;99.90;;;;;;5069252;28;20052;-85
2024/03/09 07:35:36;;;;;;;0.63;0.63;;;1.00;99.90;;;;;;5064227;28;20096;-87
2024/03/09 07:38:03;;;;;;;;;;;2.70;99.90;;;;;;5074272;28;20123;-88
2024/03/09 07:40:33;;;;;;;0.70;0.70;;;1.00;99.90;;;;;;5080439;28;19980;-88
2024/03/09 07:43:01;;;;;;;0.73;0.73;;;1.30;99.90;;;;;;5101285;28;20040;-89
2024/03/09 07:45:29;;;;;;;0.90;0.90;;;1.30;99.90;;;;;;5092785;28;20303;-86
2024/03/09 07:48:03;;;;;;;0.70;0.70;;;1.40;99.90;;;;;;5085882;28;20037;-90
2024/03/09 07:50:29;;;;;;;0.77;0.77;;;2.00;99.90;;;;;;5078109;28;20052;-86
2024/03/09 07:52:56;;;;;;;1.02;1.02;;;1.70;99.90;;;;;;5048287;28;20136;-86
2024/03/09 07:55:23;;;;;;;0.77;0.77;;;1.60;99.90;;;;;;5087586;28;20126;-87
2024/03/09 07:57:54;;;;;;;0.70;0.70;;;1.70;99.90;;;;;;5076413;28;20063;-87
2024/03/09 08:00:27;;;;;;;0.80;0.80;;;1.80;99.90;;;;;;5071100;28;20040;-86
2024/03/09 08:02:54;;;;;;;1.88;1.77;;;1.90;99.90;;;;;;5076684;28;20139;-84
2024/03/09 08:05:25;;;;;;;1.13;1.02;;;2.00;99.90;;;;;;5083834;28;20050;-85
2024/03/09 08:07:53;;;;;;;0.70;0.70;;;0.80;99.90;;;;;;5067588;28;20048;-85
2024/03/09 08:10:21;;;;;;;4.22;1.90;;;2.00;99.90;;;;;;5095059;28;20063;-82
2024/03/09 08:12:51;;;;;;;1.15;1.13;;;3.50;99.90;;;;;;5119572;27;20064;-80
2024/03/09 08:15:17;;;;;;;0.98;0.98;;;2.30;99.90;;;;;;5070768;28;20044;-85
2024/03/09 08:17:48;;;;;;;0.70;0.70;;;2.40;99.90;;;;;;5090697;28;20042;-88
2024/03/09 08:20:15;;;;;;;0.98;0.98;;;2.50;99.90;;;;;;5085232;28;20078;-83
2024/03/09 08:22:48;;;;;;;0.60;0.60;;;2.50;99.90;;;;;;5112193;27;20555;-82
2024/03/09 08:25:16;;;;;;;0.65;0.65;;;2.60;99.90;;;;;;5101683;28;20044;-86
2024/03/09 08:27:44;;;;;;;1.00;1.00;;;2.60;99.90;;;;;;5104251;28;20079;-87
2024/03/09 08:30:17;;;;;;;0.63;0.63;;;2.90;99.90;;;;;;5102532;28;20095;-86
2024/03/09 08:32:53;;;;;;;1.02;0.90;;;2.80;99.90;;;;;;5108500;28;20142;-86
2024/03/09 08:35:33;;;;;;;7.40;3.88;;;3.00;99.90;;;;;;5101740;28;20066;-87
2024/03/09 08:38:06;;;;;;;1.25;1.25;;;3.10;99.90;;;;;;5091658;28;20065;-86
2024/03/09 08:40:35;;;;;;;1.83;1.20;;;;;;;;;;5125281;27;20043;-87
2024/03/09 08:43:03;;;;;;;;;;;3.20;99.90;;;;;;5132362;27;20270;-86
2024/03/09 08:45:32;;;;;;;0.80;0.80;;;3.50;99.90;;;;;;5108902;28;19919;-88
2024/03/09 08:47:58;;;;;;;1.63;1.52;;;3.30;99.90;;;;;;5090671;28;20066;-87
2024/03/09 08:50:25;;;;;;;0.77;0.77;;;3.50;99.90;;;;;;5103248;28;20088;-88
2024/03/09 08:52:52;;;;;;;0.77;0.77;;;3.60;99.90;;;;;;5096294;28;20032;-88
2024/03/09 08:55:29;;;;;;;0.70;0.70;;;3.60;99.90;;;;;;5118057;28;20050;-87
2024/03/09 08:57:55;;;;;;;;;;;3.00;99.90;;;;;;5099464;28;20028;-88
2024/03/09 09:00:24;;;;;;;2.00;0.85;;;3.70;99.90;;;;;;5134007;28;19922;-88
2024/03/09 09:02:57;;;;;;;0.60;0.60;;;3.80;99.90;;;;;;5084731;28;20044;-88
2024/03/09 09:05:26;;;;;;;1.13;1.13;;;4.10;99.90;;;;;;5102728;28;20063;-87
2024/03/09 09:07:54;;;;;;;0.50;0.50;;;3.90;99.90;;;;;;5092205;28;20088;-87
2024/03/09 09:10:25;;;;;;;1.38;1.38;;;2.70;99.90;;;;;;5087875;28;20040;-87
2024/03/09 09:12:51;;;;;;;1.33;0.93;;;3.00;99.90;;;;;;5072847;28;20040;-86
2024/03/09 09:15:17;;;;;;;1.00;1.00;;;4.10;99.90;;;;;;5071455;28;20101;-87
2024/03/09 09:17:43;;;;;;;0.60;0.60;;;4.20;99.90;;;;;;5097378;28;20070;-84
2024/03/09 09:20:28;;;;;;;0.98;0.75;;;4.30;99.90;;;;;;5130501;28;20039;-85
2024/03/09 09:22:55;;;;;;;1.20;1.20;;;4.40;99.90;;;;;;5093810;28;20035;-87
2024/03/09 09:25:29;;;;;;;1.02;1.02;;;4.60;99.90;;;;;;5113620;28;20065;-88
2024/03/09 09:28:03;;;;;;;0.43;0.43;;;4.70;99.90;;;;;;5093595;28;20131;-88
2024/03/09 09:30:29;;;;;;;1.05;1.05;;;4.70;99.90;;;;;;5128354;28;20063;-87
2024/03/09 09:32:57;;;;;;;1.52;1.48;;;4.90;99.90;;;;;;5102884;28;20099;-86
2024/03/09 09:35:26;;;;;;;0.98;0.98;;;3.10;99.90;;;;;;5119158;28;20112;-86
2024/03/09 09:37:57;;;;;;;0.55;0.55;;;5.00;99.90;;;;;;5108377;28;20043;-85
2024/03/09 09:40:32;;;;;;;0.70;0.70;;;5.10;99.90;;;;;;5127367;28;20047;-84
2024/03/09 09:43:05;;;;;;;1.40;0.77;;;4.50;99.90;;;;;;5091182;28;20063;-85
2024/03/09 09:45:49;;;;;;;0.90;0.90;;;5.20;99.90;;;;;;5106845;27;20040;-85
2024/03/09 09:48:17;;;;;;;0.57;0.57;;;5.30;99.90;;;;;;5093996;28;20103;-84
2024/03/09 09:50:44;;;;;;;0.60;0.60;;;5.30;99.90;;;;;;5103697;28;20461;-85
2024/03/09 09:53:17;;;;;;;1.05;1.05;;;4.70;99.90;;;;;;5081508;28;20035;-83
2024/03/09 09:55:46;;;;;;;1.17;1.17;;;5.70;99.90;;;;;;5106080;28;20487;-83
2024/03/09 09:58:13;;;;;;;2.45;2.35;;;5.60;99.90;;;;;;5097995;28;20495;-85
2024/03/09 10:00:40;;;;;;;1.80;1.70;;;5.40;99.90;;;;;;5110511;27;20146;-85
2024/03/09 10:03:07;;;;;;;2.30;1.75;;;5.50;99.90;;;;;;5107628;28;20043;-85
2024/03/09 10:05:33;;;;;;;0.95;0.95;;;5.40;99.90;;;;;;5111149;28;20040;-83
2024/03/09 10:08:09;;;;;;;2.15;2.08;;;5.80;99.90;;;;;;5107099;28;20079;-83
2024/03/09 10:10:47;;;;;;;2.42;1.55;;;5.70;99.90;;;;;;5101651;28;20257;-84
2024/03/09 10:13:18;;;;;;;0.77;0.77;;;4.70;99.90;;;;;;5105838;28;20016;-85
2024/03/09 10:15:49;;;;;;;5.28;2.05;;;6.00;99.90;;;;;;5106069;28;20085;-84
2024/03/09 10:18:19;;;;;;;1.17;1.15;;;5.90;99.90;;;;;;5098659;28;20036;-87
2024/03/09 10:21:02;;;;;;;0.90;0.90;;;6.00;99.90;;;;;;5098642;28;20039;-83
2024/03/09 10:24:00;;;;;;;0.73;0.73;;;5.30;99.90;;;;;;5121291;27;20046;-85
2024/03/09 10:26:28;;;;;;;0.70;0.70;;;6.30;99.90;;;;;;5080043;28;20498;-84
2024/03/09 10:29:07;;;;;;;0.77;0.77;;;6.70;99.90;;;;;;5108480;28;20048;-87
2024/03/09 10:31:35;;;;;;;1.08;0.90;;;;;;;;;;5117977;28;20085;-85
2024/03/09 10:34:05;;;;;;;0.60;0.60;;;;;;;;;;5081998;28;20719;-87
2024/03/09 10:36:32;;;;;;;0.90;0.90;;;6.80;99.90;;;;;;5110899;28;20041;-87
2024/03/09 10:39:01;;;;;;;2.58;2.47;;;6.80;99.90;;;;;;5080321;28;20044;-85
2024/03/09 10:41:30;;;;;;;0.40;0.40;;;6.90;99.90;;;;;;5065674;28;20040;-87
2024/03/09 10:43:57;;;;;;;;;;;6.20;99.90;;;;;;5088535;28;20031;-86
2024/03/09 10:46:25;;;;;;;;;;;7.20;99.90;;;;;;5092700;28;19927;-88
2024/03/09 10:48:57;;;;;;;1.25;1.25;;;7.10;99.90;;;;;;5101634;28;20483;-85
2024/03/09 10:51:41;;;;;;;1.27;1.13;;;7.20;99.90;;;;;;5097931;28;20126;-87
2024/03/09 10:54:43;;;;;;;0.60;0.60;;;7.20;99.90;;;;;;5107797;28;20035;-85
2024/03/09 10:57:11;;;;;;;0.65;0.65;;;7.20;99.90;;;;;;5096545;28;20040;-85
2024/03/09 10:59:41;;;;;;;0.68;0.68;;;7.30;99.90;;;;;;5085313;28;20056;-85
2024/03/09 11:02:08;;;;;;;0.47;0.47;;;7.20;99.90;;;;;;5117474;27;20036;-87
2024/03/09 11:04:35;;;;;;;0.50;0.50;;;7.50;99.90;;;;;;5104519;28;20035;-83
2024/03/09 11:07:08;;;;;;;0.60;0.60;;;7.40;99.90;;;;;;5111772;28;20044;-85
2024/03/09 11:09:37;;;;;;;1.38;1.38;;;7.40;99.90;;;;;;5045111;28;20048;-86
2024/03/09 11:12:06;;;;;;;2.83;1.70;;;7.50;99.90;;;;;;5092636;28;20077;-86
2024/03/09 11:14:33;;;;;;;;;;;6.60;99.90;;;;;;5093393;28;20050;-84
2024/03/09 11:17:00;;;;;;;0.50;0.50;;;7.70;99.90;;;;;;5103738;28;19931;-82
2024/03/09 11:19:26;;;;;;;0.98;0.98;;;8.50;99.90;;;;;;5091876;28;20119;-89
2024/03/09 11:21:53;;;;;;;0.50;0.50;;;8.00;99.90;;;;;;5087205;28;20553;-85
2024/03/09 11:24:39;;;;;;;0.22;0.22;;;8.10;99.90;;;;;;5115487;27;20069;-85
2024/03/09 11:27:06;;;;;;;2.20;1.80;;;8.10;99.90;;;;;;5130245;27;20047;-85
2024/03/09 11:29:43;;;;;;;1.23;1.13;;;8.30;99.90;;;;;;5097363;28;20047;-87
2024/03/09 11:32:11;;;;;;;2.17;1.13;;;8.60;99.90;;;;;;5099997;28;20050;-83
2024/03/09 11:34:38;;;;;;;1.00;1.00;;;8.70;99.90;;;;;;5106653;27;20018;-86
2024/03/09 11:37:18;;;;;;;0.40;0.40;;;8.90;99.90;;;;;;5120902;27;20384;-86
2024/03/09 11:39:45;;;;;;;0.93;0.93;;;;;;;;;;5079586;28;20047;-86
2024/03/09 11:42:13;;;;;;;0.40;0.40;;;8.90;99.90;;;;;;5121846;27;20555;-87
2024/03/09 11:44:39;;;;;;;0.55;0.55;;;9.00;99.90;;;;;;5091598;28;20023;-88
2024/03/09 11:47:13;;;;;;;1.55;1.45;;;9.10;99.90;;;;;;5105366;27;20030;-86
2024/03/09 11:49:40;;;;;;;1.52;1.42;;;9.00;99.90;;;;;;5085212;28;20043;-86
2024/03/09 11:52:14;;;;;;;1.70;0.98;;;9.10;99.90;;;;;;5136293;27;20040;-85
2024/03/09 11:54:51;;;;;;;0.77;0.77;;;8.90;99.90;;;;;;5085763;28;20099;-87
2024/03/09 11:57:17;;;;;;;2.08;0.60;;;8.90;99.90;;;;;;5096906;28;20063;-88
2024/03/09 11:59:44;;;;;;;4.85;0.88;;;8.80;99.90;;;;;;5091376;28;20506;-84
2024/03/09 12:02:12;;;;;;;1.27;0.60;;;8.60;99.90;;;;;;5087551;28;20043;-84
2024/03/09 12:04:41;;;;;;;1.05;0.85;;;8.70;99.90;;;;;;5099941;27;20035;-85
2024/03/09 12:07:08;;;;;;;0.30;0.30;;;8.80;99.90;;;;;;5092110;28;20044;-84
2024/03/09 12:09:33;;;;;;;;;;;8.80;99.90;;;;;;5091319;28;20069;-89
2024/03/09 12:12:13;;;;;;;0.85;0.68;;;9.40;99.90;;;;;;5113128;28;19935;-85
2024/03/09 12:14:50;;;;;;;0.40;0.40;;;9.30;99.90;;;;;;5117172;28;20036;-87
2024/03/09 12:17:16;;;;;;;1.05;0.95;;;8.10;99.90;;;;;;5096745;28;20046;-85
2024/03/09 12:19:45;;;;;;;2.67;1.60;;;9.10;99.90;;;;;;5095008;28;20419;-86
2024/03/09 12:22:15;;;;;;;1.45;1.35;;;9.30;99.90;;;;;;5106184;28;20039;-83
2024/03/09 12:24:44;;;;;;;1.38;1.27;;;9.30;99.90;;;;;;5091354;28;20044;-86
2024/03/09 12:27:11;;;;;;;0.40;0.40;;;10.40;99.90;;;;;;5097742;28;20068;-87
2024/03/09 12:29:40;;;;;;;;;;;9.70;99.90;;;;;;5082493;28;20050;-88
2024/03/09 12:32:12;;;;;;;4.47;1.95;;;9.50;99.90;;;;;;5109430;28;19924;-85
2024/03/09 12:34:44;;;;;;;0.77;0.77;;;9.70;99.90;;;;;;5099760;28;20062;-86
2024/03/09 12:37:11;;;;;;;0.85;0.85;;;9.50;99.90;;;;;;5087776;28;20101;-86
2024/03/09 12:39:38;;;;;;;0.80;0.80;;;10.30;99.90;;;;;;5097730;28;20047;-86
2024/03/09 12:42:06;;;;;;;2.65;2.45;;;9.60;99.90;;;;;;5122217;27;20044;-85
2024/03/09 12:44:40;;;;;;;1.27;1.17;;;9.60;99.90;;;;;;5112844;28;20051;-79
2024/03/09 12:47:13;;;;;;;0.63;0.63;;;9.60;99.90;;;;;;5119852;27;20484;-81
2024/03/09 12:49:43;;;;;;;0.77;0.77;;;9.70;99.90;;;;;;5111821;27;20047;-87
2024/03/09 12:52:14;;;;;;;1.58;1.35;;;9.80;99.90;;;;;;5122473;28;20023;-85
2024/03/09 12:54:44;;;;;;;1.10;1.00;;;9.80;99.90;;;;;;5087036;28;20406;-86
2024/03/09 12:57:27;;;;;;;0.73;0.70;;;9.80;99.90;;;;;;5115320;28;20043;-88
2024/03/09 13:00:00;;;;;;;3.30;1.50;;;9.40;99.90;;;;;;5105323;28;20062;-88
2024/03/09 13:02:32;;;;;;;1.73;1.60;;;10.40;99.90;;;;;;5102767;28;20039;-86
2024/03/09 13:05:04;;;;;;;1.67;1.58;;;10.50;99.90;;;;;;5093400;28;20073;-86
2024/03/09 13:07:39;;;;;;;1.40;1.30;;;11.70;99.90;;;;;;5105677;28;20039;-89
2024/03/09 13:10:32;;;;;;;0.88;0.88;;;10.40;99.90;;;;;;5101364;28;20070;-88
2024/03/09 13:13:13;;;;;;;1.25;1.20;;;11.30;99.90;;;;;;5097819;28;20131;-87